Terminal Aerodrome Forecast
Issued by NWS

Home | Current Version | Previous Version | Text Only | Print | Product List | Glossary On
Versions: 1 2 3 4 5 6 7 8 9 10 11 12 13 14 15 16 17
518
FTUS44 KTSA 222322
TAFXNA
TAF
KXNA 222322Z 2300/2324 33010G20KT P6SM OVC015
     FM230200 34010KT P6SM OVC015
     FM230800 32005KT 5SM BR OVC015
     FM231500 VRB03KT P6SM BKN015=

USA.gov is the U.S. government's official web portal to all federal, state and local government web resources and services.